Frederica, Delaware
Current Conditions -  °F | °C
As of 8:58 AM on Thursday 30 Oct 2014 (Local Time) from KDOV Reporting Station
Overcast Overcast  
Wind Chill: 46°   Ceiling: 7000
Heat Index: 48°   Visibility: 10mi
Dew Point: 48°   Wind: 5mph
Humidity: 100%   Direction: 310°NW
Pressure: 30.01"   Gusts: NA
Location:  39.01°N, 75.47°W
Report Text: KDOV 301258Z AUTO 31004KT 10SM OVC070 09/09 A3001 RMK AO2 SLP166 T00870087
Loading
Personal Weather Stations






























Interactive Weather Map
Tropical Storm Tracking
New forecast layout! Learn more

10-Day Weather Forecast

Advertisements
Track Severe Weather on mobile